Time;durP1;ratioP1;P1;durP2;ratioP2;P2;SDS_P1;SDS_P2;PMS_P1;PMS_P2;Temp;Humidity;BMP_temperature;BMP_pressure;BME280_temperature;BME280_humidity;BME280_pressure;Samples;Min_cycle;Max_cycle;Signal;HPM_P1;HPM_P2
2023/09/22 00:00:04;;;;;;;17.25;9.38;;;;;;;12.34;100.00;99759.78;4952366;28;20430;-71
2023/09/22 00:02:30;;;;;;;13.10;7.78;;;;;;;12.28;100.00;99766.69;4953630;28;20043;-71
2023/09/22 00:04:57;;;;;;;18.45;8.93;;;;;;;12.25;100.00;99758.81;4967967;28;20054;-70
2023/09/22 00:07:22;;;;;;;14.85;7.95;;;;;;;12.18;100.00;99758.56;4952241;29;20399;-71
2023/09/22 00:09:49;;;;;;;15.02;7.75;;;;;;;12.17;100.00;99756.84;4955786;28;20047;-71
2023/09/22 00:12:14;;;;;;;15.70;8.00;;;;;;;12.13;100.00;99760.00;4971158;28;20023;-71
2023/09/22 00:14:39;;;;;;;11.82;7.55;;;;;;;12.09;100.00;99766.75;4957104;28;20457;-71
2023/09/22 00:17:05;;;;;;;13.43;7.47;;;;;;;12.02;100.00;99762.88;4973516;28;20495;-71
2023/09/22 00:19:31;;;;;;;14.73;7.68;;;;;;;12.00;100.00;99765.78;4984331;28;20069;-70
2023/09/22 00:21:56;;;;;;;13.88;7.45;;;;;;;11.95;100.00;99752.59;4989248;28;20037;-71
2023/09/22 00:24:22;;;;;;;13.32;7.68;;;;;;;11.94;100.00;99759.06;4983658;28;20043;-71
2023/09/22 00:26:48;;;;;;;16.50;7.47;;;;;;;11.94;100.00;99760.91;4952957;28;20043;-70
2023/09/22 00:29:14;;;;;;;11.13;6.68;;;;;;;11.91;100.00;99759.34;4983516;28;20035;-70
2023/09/22 00:31:39;;;;;;;13.45;7.55;;;;;;;11.90;100.00;99764.94;4952733;28;20053;-71
2023/09/22 00:34:05;;;;;;;10.52;6.40;;;;;;;11.86;100.00;99767.09;4981359;28;20133;-70
2023/09/22 00:36:30;;;;;;;13.23;7.30;;;;;;;11.85;100.00;99772.69;4953292;29;20399;-71
2023/09/22 00:38:56;;;;;;;11.20;7.00;;;;;;;11.81;100.00;99776.69;4982317;28;20039;-70
2023/09/22 00:41:21;;;;;;;14.60;6.65;;;;;;;11.78;100.00;99782.41;4953015;28;20035;-70
2023/09/22 00:43:47;;;;;;;15.98;6.78;;;;;;;11.74;100.00;99781.84;4983261;28;20468;-71
2023/09/22 00:46:13;;;;;;;13.55;7.07;;;;;;;11.69;100.00;99779.53;4952208;28;20122;-71
2023/09/22 00:48:41;;;;;;;12.85;7.38;;;;;;;11.68;100.00;99771.53;4951995;28;20049;-70
2023/09/22 00:51:06;;;;;;;13.98;8.50;;;;;;;11.68;100.00;99772.38;4952635;28;20030;-70
2023/09/22 00:53:34;;;;;;;14.32;7.20;;;;;;;11.65;100.00;99767.22;4966480;28;20031;-71
2023/09/22 00:56:01;;;;;;;14.32;6.28;;;;;;;11.64;100.00;99754.59;4966900;28;20369;-70
2023/09/22 00:58:26;;;;;;;12.55;6.85;;;;;;;11.62;100.00;99742.16;4952713;28;20491;-70
2023/09/22 01:00:53;;;;;;;12.20;6.30;;;;;;;11.63;100.00;99749.31;4982710;28;20114;-70
2023/09/22 01:03:19;;;;;;;13.40;7.05;;;;;;;11.62;100.00;99759.34;4951977;28;20117;-70
2023/09/22 01:05:46;;;;;;;14.00;6.55;;;;;;;11.61;100.00;99757.63;4982808;28;20559;-70
2023/09/22 01:08:11;;;;;;;14.45;6.43;;;;;;;11.58;100.00;99760.63;4982837;28;20043;-70
2023/09/22 01:10:44;;;;;;;14.43;7.15;;;;;;;11.55;100.00;99769.09;5000235;28;20521;-70
2023/09/22 01:13:10;;;;;;;12.88;6.85;;;;;;;11.53;100.00;99776.56;4952156;28;20369;-70
2023/09/22 01:15:42;;;;;;;12.90;7.20;;;;;;;11.48;100.00;99757.06;4966366;28;20059;-70
2023/09/22 01:18:10;;;;;;;14.35;6.72;;;;;;;11.45;100.00;99751.88;4966615;28;20062;-70
2023/09/22 01:20:45;;;;;;;13.32;7.57;;;;;;;11.44;100.00;99763.78;4982478;28;20050;-70
2023/09/22 01:23:12;;;;;;;12.40;6.78;;;;;;;11.41;100.00;99761.34;4982386;28;20042;-70
2023/09/22 01:25:41;;;;;;;19.35;7.80;;;;;;;11.40;100.00;99762.34;4950751;29;20609;-70
2023/09/22 01:28:07;;;;;;;16.10;6.05;;;;;;;11.34;100.00;99760.22;4951821;29;20416;-70
2023/09/22 01:30:34;;;;;;;13.85;6.88;;;;;;;11.32;100.00;99751.31;4982374;28;20117;-71
2023/09/22 01:33:03;;;;;;;11.20;6.28;;;;;;;11.34;100.00;99757.50;4966681;28;20046;-70
2023/09/22 01:35:32;;;;;;;13.10;6.50;;;;;;;11.31;100.00;99755.03;4966977;28;20043;-70
2023/09/22 01:38:16;;;;;;;15.95;7.13;;;;;;;11.29;100.00;99751.63;4982668;28;20035;-71
2023/09/22 01:40:42;;;;;;;14.38;6.32;;;;;;;11.26;100.00;99750.03;4981185;28;20400;-71
2023/09/22 01:43:08;;;;;;;12.10;6.28;;;;;;;11.24;100.00;99743.88;4951477;28;20027;-71
2023/09/22 01:45:34;;;;;;;16.02;6.13;;;;;;;11.23;100.00;99747.56;4981879;28;20066;-71
2023/09/22 01:47:59;;;;;;;15.98;7.25;;;;;;;11.23;100.00;99753.03;4966067;28;20070;-70
2023/09/22 01:50:26;;;;;;;17.83;7.60;;;;;;;11.19;100.00;99748.88;4950438;28;20373;-70
2023/09/22 01:52:54;;;;;;;14.02;7.38;;;;;;;11.20;100.00;99756.06;4981564;28;20058;-71
2023/09/22 01:55:23;;;;;;;18.58;7.28;;;;;;;11.19;100.00;99757.91;4964964;28;20046;-70
2023/09/22 01:57:49;;;;;;;15.07;7.05;;;;;;;11.20;100.00;99762.34;4965798;28;20428;-70
2023/09/22 02:00:15;;;;;;;17.88;6.75;;;;;;;11.20;100.00;99764.22;4965510;28;20110;-70
2023/09/22 02:02:43;;;;;;;18.42;8.20;;;;;;;11.24;100.00;99758.34;4981772;28;20051;-70
2023/09/22 02:05:10;;;;;;;16.75;8.18;;;;;;;11.25;100.00;99756.47;4981440;28;20039;-70
2023/09/22 02:07:35;;;;;;;20.08;7.72;;;;;;;11.26;100.00;99754.63;4950459;28;20043;-70
2023/09/22 02:10:00;;;;;;;22.23;8.30;;;;;;;11.25;100.00;99753.75;4965014;28;20487;-70
2023/09/22 02:12:26;;;;;;;21.58;8.27;;;;;;;11.25;100.00;99745.59;4981245;28;20047;-70
2023/09/22 02:14:51;;;;;;;19.77;8.20;;;;;;;11.24;100.00;99755.63;4950615;29;20047;-70
2023/09/22 02:17:16;;;;;;;20.83;8.25;;;;;;;11.26;100.00;99755.47;4965643;28;20031;-70
2023/09/22 02:19:42;;;;;;;18.27;8.45;;;;;;;11.28;100.00;99761.63;4951155;28;20042;-70
2023/09/22 02:22:07;;;;;;;16.15;8.43;;;;;;;11.28;100.00;99753.44;4950338;29;20049;-70
2023/09/22 02:24:33;;;;;;;22.40;8.13;;;;;;;11.29;100.00;99752.47;4948062;28;20122;-70
2023/09/22 02:27:02;;;;;;;14.18;7.18;;;;;;;11.31;100.00;99761.34;4982120;28;20439;-70
2023/09/22 02:29:28;;;;;;;19.20;8.27;;;;;;;11.32;100.00;99763.06;4981900;28;20443;-70
2023/09/22 02:31:54;;;;;;;24.10;7.75;;;;;;;11.32;100.00;99760.34;4950385;28;20031;-70
2023/09/22 02:34:20;;;;;;;14.30;7.55;;;;;;;11.35;100.00;99762.78;4981088;28;20039;-70
2023/09/22 02:36:47;;;;;;;18.75;7.97;;;;;;;11.37;100.00;99768.94;4965121;28;20032;-70
2023/09/22 02:39:12;;;;;;;18.23;7.80;;;;;;;11.39;100.00;99752.47;4955290;28;20066;-70
2023/09/22 02:41:38;;;;;;;18.60;7.97;;;;;;;11.41;100.00;99751.31;5000842;28;20123;-70
2023/09/22 02:44:06;;;;;;;16.10;7.53;;;;;;;11.42;100.00;99754.88;4987679;28;20059;-70
2023/09/22 02:46:32;;;;;;;16.13;7.47;;;;;;;11.43;100.00;99751.19;4950281;28;20039;-70
2023/09/22 02:48:57;;;;;;;18.67;8.68;;;;;;;11.45;100.00;99754.63;4950254;28;20053;-70
2023/09/22 02:51:22;;;;;;;17.38;8.77;;;;;;;11.46;100.00;99757.19;4981061;28;20070;-70
2023/09/22 02:53:50;;;;;;;23.35;9.00;;;;;;;11.46;100.00;99757.19;4980175;28;20035;-70
2023/09/22 02:56:16;;;;;;;17.27;8.18;;;;;;;11.48;100.00;99765.22;4950043;29;20035;-70
2023/09/22 02:58:45;;;;;;;16.52;7.97;;;;;;;11.48;100.00;99757.06;4948653;28;20475;-70
2023/09/22 03:01:10;;;;;;;19.13;9.23;;;;;;;11.46;100.00;99757.19;4964231;28;20057;-70
2023/09/22 03:03:37;;;;;;;16.67;7.57;;;;;;;11.48;100.00;99765.22;4949573;28;20035;-70
2023/09/22 03:06:03;;;;;;;16.35;7.75;;;;;;;11.48;100.00;99755.19;4964717;28;20475;-70
2023/09/22 03:08:29;;;;;;;15.00;7.05;;;;;;;11.49;100.00;99751.47;4980621;28;20102;-70
2023/09/22 03:10:55;;;;;;;16.80;8.48;;;;;;;11.49;100.00;99761.50;4947599;28;20053;-70
2023/09/22 03:13:20;;;;;;;13.77;7.35;;;;;;;11.52;100.00;99754.88;4949876;29;20066;-70
2023/09/22 03:15:46;;;;;;;23.73;7.70;;;;;;;11.49;100.00;99754.19;4980306;28;20410;-70
2023/09/22 03:18:11;;;;;;;15.65;7.82;;;;;;;11.50;100.00;99760.50;4949652;28;20035;-70
2023/09/22 03:20:36;;;;;;;14.40;7.28;;;;;;;11.48;100.00;99766.09;4980478;28;20043;-70
2023/09/22 03:23:03;;;;;;;14.73;7.03;;;;;;;11.50;100.00;99763.22;4979769;28;20035;-70
2023/09/22 03:25:28;;;;;;;14.25;7.13;;;;;;;11.48;100.00;99766.09;4979615;28;20105;-70
2023/09/22 03:27:54;;;;;;;14.60;7.65;;;;;;;11.48;100.00;99763.38;4949908;28;20452;-70
2023/09/22 03:30:21;;;;;;;16.77;7.47;;;;;;;11.49;100.00;99762.34;4964156;28;20384;-70
2023/09/22 03:32:47;;;;;;;15.30;7.53;;;;;;;11.50;100.00;99768.66;4980116;28;20035;-70
2023/09/22 03:35:13;;;;;;;19.60;7.85;;;;;;;11.50;100.00;99761.34;4979896;28;20035;-70
2023/09/22 03:37:40;;;;;;;14.73;7.13;;;;;;;11.52;100.00;99761.22;4980225;28;20123;-70
2023/09/22 03:40:13;;;;;;;16.80;7.30;;;;;;;11.55;100.00;99760.06;4979051;28;20050;-70
2023/09/22 03:42:43;;;;;;;15.10;6.80;;;;;;;11.57;100.00;99764.38;4980462;28;20530;-70
2023/09/22 03:45:09;;;;;;;17.17;7.50;;;;;;;11.58;100.00;99760.63;4980099;28;20410;-70
2023/09/22 03:47:34;;;;;;;13.80;7.13;;;;;;;11.59;100.00;99767.78;4980150;28;20032;-70
2023/09/22 03:50:00;;;;;;;12.52;6.40;;;;;;;11.62;100.00;99762.06;4980438;28;20046;-70
2023/09/22 03:52:26;;;;;;;15.02;6.47;;;;;;;11.64;100.00;99764.63;4979993;28;20019;-70
2023/09/22 03:54:51;;;;;;;15.10;6.75;;;;;;;11.62;100.00;99763.94;4963029;28;20097;-70
2023/09/22 03:57:18;;;;;;;12.85;6.78;;;;;;;11.61;100.00;99768.53;4963940;28;20031;-70
2023/09/22 03:59:44;;;;;;;11.63;5.90;;;;;;;11.64;100.00;99770.94;4979872;28;20554;-70
2023/09/22 04:02:09;;;;;;;15.85;6.50;;;;;;;11.63;100.00;99761.06;4947695;28;20181;-70
2023/09/22 04:04:35;;;;;;;15.85;5.82;;;;;;;11.64;100.00;99775.53;4979639;28;20443;-70
2023/09/22 04:07:00;;;;;;;10.93;5.80;;;;;;;11.64;100.00;99775.53;4980711;28;20054;-70
2023/09/22 04:09:28;;;;;;;11.88;5.75;;;;;;;11.62;100.00;99774.84;4978784;28;20474;-70
2023/09/22 04:11:53;;;;;;;13.27;5.60;;;;;;;11.65;100.00;99780.84;4949300;28;20039;-70
2023/09/22 04:14:20;;;;;;;9.68;5.15;;;;;;;11.68;100.00;99779.69;4949082;28;20078;-70
2023/09/22 04:16:46;;;;;;;9.20;5.20;;;;;;;11.71;100.00;99780.28;4948996;28;20071;-70
2023/09/22 04:19:11;;;;;;;14.77;5.68;;;;;;;11.74;100.00;99779.97;4948644;28;20043;-70
2023/09/22 04:21:42;;;;;;;9.43;5.13;;;;;;;11.77;100.00;99780.69;4949233;29;20062;-70
2023/09/22 04:24:11;;;;;;;14.25;4.90;;;;;;;11.79;100.00;99779.53;4947916;29;20079;-70
2023/09/22 04:26:42;;;;;;;8.05;4.40;;;;;;;11.81;100.00;99785.72;4948918;28;20384;-70
2023/09/22 04:29:11;;;;;;;9.60;5.05;;;;;;;11.78;100.00;99786.00;4948755;29;20582;-70
2023/09/22 04:31:37;;;;;;;9.65;4.40;;;;;;;11.77;100.00;99788.88;4963842;28;20031;-70
2023/09/22 04:34:03;;;;;;;8.95;5.25;;;;;;;11.73;100.00;99791.03;4963475;28;20039;-70
2023/09/22 04:36:30;;;;;;;8.98;4.18;;;;;;;11.71;100.00;99791.16;4952492;28;20027;-70
2023/09/22 04:38:56;;;;;;;8.10;4.47;;;;;;;11.66;100.00;99788.03;4952394;28;20042;-70
2023/09/22 04:41:21;;;;;;;9.25;4.15;;;;;;;11.64;100.00;99787.28;4952595;29;20110;-70
2023/09/22 04:43:47;;;;;;;11.07;4.60;;;;;;;11.58;100.00;99787.88;4967384;28;20035;-70
2023/09/22 04:46:15;;;;;;;7.00;3.55;;;;;;;11.56;100.00;99789.88;4952238;29;20069;-70
2023/09/22 04:48:41;;;;;;;6.68;3.65;;;;;;;11.53;100.00;99787.44;4969651;28;20043;-70
2023/09/22 04:51:06;;;;;;;8.05;3.60;;;;;;;11.51;100.00;99786.72;4983437;28;20507;-70
2023/09/22 04:53:32;;;;;;;6.82;3.70;;;;;;;11.49;100.00;99796.91;4951974;29;20035;-70
2023/09/22 04:56:06;;;;;;;11.35;4.38;;;;;;;11.46;100.00;99798.03;4952012;28;20039;-70
2023/09/22 04:58:32;;;;;;;5.13;3.47;;;;;;;11.46;100.00;99792.59;4952626;28;20050;-70
2023/09/22 05:01:01;;;;;;;11.00;4.53;;;;;;;11.44;100.00;99804.66;4983286;28;20415;-70
2023/09/22 05:03:26;;;;;;;6.97;3.53;;;;;;;11.38;100.00;99791.63;4952096;28;20043;-70
2023/09/22 05:05:53;;;;;;;6.05;3.83;;;;;;;11.34;100.00;99793.75;4951548;28;20051;-70
2023/09/22 05:08:18;;;;;;;7.55;3.60;;;;;;;11.35;100.00;99800.06;4951286;28;20055;-70
2023/09/22 05:10:48;;;;;;;8.38;4.18;;;;;;;11.33;100.00;99807.47;4970253;28;20776;-70
2023/09/22 05:13:15;;;;;;;7.78;4.65;;;;;;;11.30;100.00;99808.66;4971239;28;20047;-70
2023/09/22 05:15:41;;;;;;;6.28;3.80;;;;;;;11.26;100.00;99800.91;4985408;28;20236;-70
2023/09/22 05:18:12;;;;;;;6.30;3.92;;;;;;;11.24;100.00;99814.66;4951663;28;20050;-70
2023/09/22 05:20:37;;;;;;;6.55;4.22;;;;;;;11.20;100.00;99813.22;4952496;28;20031;-70
2023/09/22 05:23:03;;;;;;;16.67;3.88;;;;;;;11.18;100.00;99818.78;4970565;28;20047;-70
2023/09/22 05:25:29;;;;;;;10.05;4.05;;;;;;;11.18;100.00;99812.47;4957433;28;20039;-70
2023/09/22 05:27:54;;;;;;;7.97;4.47;;;;;;;11.19;100.00;99825.09;4989174;28;20548;-70
2023/09/22 05:30:21;;;;;;;9.25;4.43;;;;;;;11.15;100.00;99818.22;4964214;28;20097;-70
2023/09/22 05:32:47;;;;;;;9.18;4.07;;;;;;;11.14;100.00;99825.50;4960543;28;20035;-70
2023/09/22 05:35:12;;;;;;;8.45;3.80;;;;;;;11.16;100.00;99822.66;4960913;28;20031;-70
2023/09/22 05:37:38;;;;;;;9.48;4.00;;;;;;;11.14;100.00;99828.22;4970303;28;20081;-70
2023/09/22 05:40:10;;;;;;;10.52;4.30;;;;;;;11.15;100.00;99831.84;4966290;28;20046;-70
2023/09/22 05:42:36;;;;;;;10.23;4.30;;;;;;;11.13;100.00;99840.13;4964687;28;20046;-70
2023/09/22 05:45:03;;;;;;;9.95;4.22;;;;;;;11.12;100.00;99841.13;4951416;29;20039;-71
2023/09/22 05:47:29;;;;;;;5.20;3.42;;;;;;;11.12;100.00;99846.56;4953193;28;20050;-70
2023/09/22 05:49:55;;;;;;;10.32;3.83;;;;;;;11.13;100.00;99847.44;4960875;28;20054;-70
2023/09/22 05:52:20;;;;;;;16.05;4.82;;;;;;;11.15;100.00;99838.16;4982064;28;20833;-71
2023/09/22 05:54:47;;;;;;;12.38;4.40;;;;;;;11.19;100.00;99844.16;4950166;29;20089;-70
2023/09/22 05:57:13;;;;;;;8.23;4.07;;;;;;;11.22;100.00;99842.00;4953897;28;20025;-70
2023/09/22 05:59:38;;;;;;;6.90;4.40;;;;;;;11.23;100.00;99843.72;4970113;28;20042;-71
2023/09/22 06:02:05;;;;;;;7.85;3.38;;;;;;;11.24;100.00;99845.47;4961757;28;20051;-70
2023/09/22 06:04:32;;;;;;;7.32;4.25;;;;;;;11.26;100.00;99860.81;4951580;28;20054;-70
2023/09/22 06:06:58;;;;;;;11.23;4.72;;;;;;;11.27;100.00;99871.53;4951468;29;20039;-70
2023/09/22 06:09:23;;;;;;;9.93;3.83;;;;;;;11.30;100.00;99864.97;4953924;28;20035;-70
2023/09/22 06:11:49;;;;;;;10.20;4.32;;;;;;;11.31;100.00;99863.97;4965790;28;20509;-70
2023/09/22 06:14:15;;;;;;;10.60;3.95;;;;;;;11.34;100.00;99871.84;4981215;28;20043;-70
2023/09/22 06:16:41;;;;;;;9.65;3.88;;;;;;;11.36;100.00;99878.00;4950937;28;20531;-70
2023/09/22 06:19:10;;;;;;;9.77;4.43;;;;;;;11.35;100.00;99866.25;4950472;28;20084;-70
2023/09/22 06:21:36;;;;;;;6.13;3.97;;;;;;;11.41;100.00;99876.59;4950753;29;20057;-70
2023/09/22 06:24:01;;;;;;;14.90;4.38;;;;;;;11.44;100.00;99873.59;4964553;28;20199;-70
2023/09/22 06:26:27;;;;;;;9.70;4.72;;;;;;;11.49;100.00;99882.19;4982177;28;20484;-70
2023/09/22 06:28:52;;;;;;;9.13;4.32;;;;;;;11.49;100.00;99878.63;4965277;28;20046;-70
2023/09/22 06:31:18;;;;;;;11.75;3.80;;;;;;;11.52;100.00;99885.63;4981489;28;20484;-70
2023/09/22 06:33:44;;;;;;;8.65;4.40;;;;;;;11.56;100.00;99881.63;4981032;28;20027;-70
2023/09/22 06:36:09;;;;;;;10.40;4.38;;;;;;;11.63;100.00;99890.97;4950163;28;20035;-70
2023/09/22 06:38:35;;;;;;;12.93;4.78;;;;;;;11.68;100.00;99888.69;4951197;28;20403;-70
2023/09/22 06:41:04;;;;;;;9.05;4.03;;;;;;;11.77;100.00;99882.38;4965891;28;20031;-70
2023/09/22 06:43:30;;;;;;;9.93;4.50;;;;;;;11.84;100.00;99882.69;4950911;29;20081;-70
2023/09/22 06:45:58;;;;;;;5.63;3.22;;;;;;;11.88;100.00;99882.25;4949864;28;20094;-70
2023/09/22 06:48:27;;;;;;;4.85;3.08;;;;;;;11.91;100.00;99898.34;4949926;28;20039;-70
2023/09/22 06:50:58;;;;;;;7.40;3.50;;;;;;;11.97;100.00;99903.19;4981038;28;20035;-70
2023/09/22 06:53:24;;;;;;;6.22;3.22;;;;;;;12.02;100.00;99910.09;4980532;28;20035;-70
2023/09/22 06:55:59;;;;;;;5.05;3.33;;;;;;;12.07;100.00;99908.66;4980376;28;20381;-71
2023/09/22 06:58:25;;;;;;;5.00;3.03;;;;;;;12.09;100.00;99909.38;4981047;28;20479;-70
2023/09/22 07:00:50;;;;;;;8.02;2.67;;;;;;;12.08;100.00;99913.13;4949487;28;20047;-71
2023/09/22 07:03:16;;;;;;;8.77;3.22;;;;;;;12.09;100.00;99908.53;4980743;28;20047;-70
2023/09/22 07:05:43;;;;;;;10.25;3.15;;;;;;;12.14;100.00;99917.13;4949490;28;20476;-70
2023/09/22 07:08:09;;;;;;;5.35;2.63;;;;;;;12.19;100.00;99912.97;4980283;28;20027;-71
2023/09/22 07:10:35;;;;;;;4.88;3.00;;;;;;;12.26;100.00;99915.97;4966382;28;20497;-70
2023/09/22 07:13:01;;;;;;;4.38;2.85;;;;;;;12.28;100.00;99911.25;4969920;28;20565;-70
2023/09/22 07:15:27;;;;;;;5.80;2.13;;;;;;;12.30;100.00;99909.22;4983756;28;20555;-71
2023/09/22 07:17:52;;;;;;;4.65;2.20;;;;;;;12.33;100.00;99917.13;4980558;28;20043;-70
2023/09/22 07:20:19;;;;;;;7.10;3.13;;;;;;;12.34;100.00;99921.56;4949302;28;20089;-70
2023/09/22 07:22:44;;;;;;;4.78;2.83;;;;;;;12.38;100.00;99922.13;4949348;29;20053;-70
2023/09/22 07:25:11;;;;;;;4.85;2.30;;;;;;;12.37;100.00;99920.44;4947483;28;20039;-71
2023/09/22 07:27:36;;;;;;;2.92;2.00;;;;;;;12.41;100.00;99919.13;4980583;28;20073;-70
2023/09/22 07:30:09;;;;;;;4.85;2.20;;;;;;;12.41;100.00;99925.44;4980548;28;20062;-71
2023/09/22 07:32:35;;;;;;;6.20;2.17;;;;;;;12.48;100.00;99922.97;4979506;28;20487;-71
2023/09/22 07:35:01;;;;;;;4.78;1.67;;;;;;;12.57;100.00;99932.16;4949576;28;20034;-70
2023/09/22 07:37:27;;;;;;;5.97;1.92;;;;;;;12.66;100.00;99944.94;4949897;28;20067;-71
2023/09/22 07:39:52;;;;;;;2.95;1.60;;;;;;;12.75;100.00;99944.03;4963233;28;20104;-71
2023/09/22 07:42:18;;;;;;;2.97;1.85;;;;;;;12.85;100.00;99949.47;4949534;29;20039;-71
2023/09/22 07:44:43;;;;;;;5.75;1.80;;;;;;;12.91;100.00;99951.59;4949389;29;20135;-71
2023/09/22 07:47:14;;;;;;;3.63;1.63;;;;;;;12.93;100.00;99960.53;4949322;28;20086;-71
2023/09/22 07:49:40;;;;;;;4.68;2.22;;;;;;;12.99;100.00;99957.19;4949207;28;20039;-70
2023/09/22 07:52:09;;;;;;;5.63;1.45;;;;;;;13.07;100.00;99972.84;4949273;29;20761;-71
2023/09/22 07:54:35;;;;;;;3.05;1.73;;;;;;;13.12;100.00;99967.78;4948467;29;20046;-71
2023/09/22 07:57:01;;;;;;;2.70;1.20;;;;;;;13.18;100.00;99967.19;4980832;28;20833;-71
2023/09/22 07:59:29;;;;;;;3.83;1.23;;;;;;;13.26;100.00;99970.94;4980674;28;20043;-71
2023/09/22 08:01:55;;;;;;;6.35;1.50;;;;;;;13.35;100.00;99971.03;4949480;28;20055;-71
2023/09/22 08:04:20;;;;;;;1.50;1.02;;;;;;;13.47;100.00;99975.28;4948802;28;20443;-71
2023/09/22 08:06:46;;;;;;;3.63;1.45;;;;;;;13.46;100.00;99968.97;4980292;28;20502;-71
2023/09/22 08:09:13;;;;;;;3.63;1.50;;;;;;;13.59;100.00;99981.41;4951381;28;20039;-71
2023/09/22 08:11:38;;;;;;;3.65;1.48;;;;;;;13.56;100.00;99974.38;4967417;28;20039;-72
2023/09/22 08:14:03;;;;;;;3.58;1.30;;;;;;;13.60;100.00;99992.19;4952752;28;20450;-72
2023/09/22 08:16:29;;;;;;;3.10;1.40;;;;;;;13.57;100.00;99984.31;4951948;28;20031;-71
2023/09/22 08:18:54;;;;;;;2.30;1.00;;;;;;;13.64;100.00;99988.16;4951166;28;20542;-71
2023/09/22 08:21:21;;;;;;;3.55;1.40;;;;;;;13.71;99.62;99985.69;4984039;28;20399;-72
2023/09/22 08:23:47;;;;;;;2.25;1.88;;;;;;;13.77;100.00;99988.66;4952094;28;20114;-71
2023/09/22 08:26:17;;;;;;;4.50;1.10;;;;;;;13.81;100.00;99985.63;4952456;29;20038;-71
2023/09/22 08:28:47;;;;;;;4.43;1.33;;;;;;;13.90;100.00;99993.75;4983664;28;20043;-71
2023/09/22 08:31:13;;;;;;;1.77;1.00;;;;;;;13.91;98.84;99998.22;4952517;29;20047;-71
2023/09/22 08:33:39;;;;;;;2.22;0.75;;;;;;;13.84;95.58;99988.03;4952589;28;20617;-72
2023/09/22 08:36:05;;;;;;;0.88;0.80;;;;;;;13.81;97.63;99991.94;4952402;28;20459;-72
2023/09/22 08:38:32;;;;;;;2.40;1.00;;;;;;;13.77;97.34;99990.53;4952406;28;20050;-71
2023/09/22 08:40:58;;;;;;;2.75;1.10;;;;;;;13.73;95.25;100002.78;4983403;28;20046;-71
2023/09/22 08:43:25;;;;;;;1.77;0.68;;;;;;;13.72;96.98;100001.06;4952417;28;20122;-71
2023/09/22 08:45:51;;;;;;;5.07;0.93;;;;;;;13.77;96.74;100001.47;4952107;29;20052;-71
2023/09/22 08:48:16;;;;;;;2.75;1.02;;;;;;;13.90;95.69;99995.66;4952408;28;20445;-72
2023/09/22 08:50:42;;;;;;;3.05;1.00;;;;;;;14.06;95.65;100000.41;4983111;28;20039;-71
2023/09/22 08:53:07;;;;;;;4.70;2.08;;;;;;;14.21;94.79;99996.97;4952362;29;20081;-72
2023/09/22 08:55:33;;;;;;;5.85;0.90;;;;;;;14.41;94.24;100000.44;4951331;28;20042;-72
2023/09/22 08:57:59;;;;;;;3.80;1.30;;;;;;;14.62;94.01;100004.75;4953063;29;20043;-71
2023/09/22 09:00:29;;;;;;;3.47;1.02;;;;;;;14.61;94.16;100014.84;4950585;29;20153;-71
2023/09/22 09:02:57;;;;;;;1.60;0.95;;;;;;;14.45;92.69;100004.56;4952010;28;20035;-72
2023/09/22 09:05:28;;;;;;;3.25;0.90;;;;;;;14.27;93.27;100012.81;4983124;28;20125;-71
2023/09/22 09:07:56;;;;;;;1.30;0.82;;;;;;;14.12;93.78;100011.59;4982585;28;20484;-72
2023/09/22 09:10:26;;;;;;;1.83;0.82;;;;;;;13.95;93.14;100015.19;4965965;28;20417;-72
2023/09/22 09:12:53;;;;;;;2.78;0.80;;;;;;;13.84;93.16;100018.09;4952080;28;20182;-71
2023/09/22 09:15:18;;;;;;;4.22;1.00;;;;;;;13.89;95.70;100013.03;4966436;28;20051;-71
2023/09/22 09:17:46;;;;;;;2.92;0.90;;;;;;;13.96;95.86;100016.91;4982783;28;20042;-71
2023/09/22 09:20:11;;;;;;;2.95;0.80;;;;;;;14.08;95.82;100018.38;4951702;28;20061;-71
2023/09/22 09:22:37;;;;;;;2.65;0.88;;;;;;;14.20;93.52;100014.41;4950452;28;20039;-71
2023/09/22 09:25:09;;;;;;;1.00;0.80;;;;;;;14.45;92.78;100015.50;4950739;28;20486;-71
2023/09/22 09:27:34;;;;;;;2.40;0.70;;;;;;;14.69;92.36;100014.94;4952025;29;20142;-71
2023/09/22 09:30:11;;;;;;;1.20;0.77;;;;;;;14.96;90.44;100022.16;4952010;28;20192;-71
2023/09/22 09:32:38;;;;;;;2.30;0.80;;;;;;;15.11;90.04;100024.31;4982669;28;20126;-71
2023/09/22 09:35:04;;;;;;;4.80;0.90;;;;;;;15.14;88.17;100022.09;4991457;28;20079;-72
2023/09/22 09:37:29;;;;;;;0.88;0.60;;;;;;;15.37;89.10;100027.06;4971275;28;20058;-71
2023/09/22 09:39:58;;;;;;;3.42;0.93;;;;;;;15.69;92.32;100035.47;4957476;28;20160;-71
2023/09/22 09:42:25;;;;;;;1.73;1.13;;;;;;;15.90;87.92;100031.44;4951724;28;20039;-71
2023/09/22 09:44:52;;;;;;;2.08;0.70;;;;;;;16.09;86.13;100025.72;4966235;28;20034;-72
2023/09/22 09:47:25;;;;;;;1.90;0.85;;;;;;;16.35;84.25;100032.97;4966017;28;20050;-71
2023/09/22 09:49:55;;;;;;;1.65;0.80;;;;;;;16.50;82.52;100029.38;4958232;28;20035;-71
2023/09/22 09:52:27;;;;;;;2.22;0.85;;;;;;;16.64;78.44;100027.84;4970234;28;20352;-72
2023/09/22 09:55:07;;;;;;;1.88;0.75;;;;;;;16.56;79.86;100036.09;4952101;28;20101;-71
2023/09/22 09:57:34;;;;;;;2.60;0.80;;;;;;;16.38;78.61;100039.00;4951436;29;20348;-71
2023/09/22 10:00:00;;;;;;;3.97;0.70;;;;;;;16.35;81.73;100039.31;4965866;28;20080;-72
2023/09/22 10:02:27;;;;;;;2.35;0.80;;;;;;;16.47;79.99;100029.75;4963966;28;20064;-72
2023/09/22 10:04:54;;;;;;;1.35;0.63;;;;;;;16.62;81.34;100037.31;4950757;28;20097;-71
2023/09/22 10:07:20;;;;;;;2.50;0.70;;;;;;;16.67;82.24;100038.50;4981589;28;20129;-72
2023/09/22 10:09:46;;;;;;;3.70;0.95;;;;;;;16.77;81.06;100028.25;4961226;28;20114;-72
2023/09/22 10:12:13;;;;;;;4.63;1.00;;;;;;;16.94;82.11;100028.25;4984878;28;20039;-72
2023/09/22 10:14:46;;;;;;;1.40;0.90;;;;;;;17.14;80.83;100018.59;4970003;28;20387;-72
2023/09/22 10:17:22;;;;;;;1.90;0.90;;;;;;;17.25;79.28;100020.13;4965767;28;20038;-71
2023/09/22 10:19:48;;;;;;;1.23;0.70;;;;;;;17.20;75.21;100028.91;4950527;28;20443;-72
2023/09/22 10:22:13;;;;;;;2.25;0.80;;;;;;;17.07;76.79;100029.44;4950602;29;20023;-72
2023/09/22 10:24:40;;;;;;;2.10;0.60;;;;;;;17.07;74.78;100034.09;4949618;28;20039;-72
2023/09/22 10:27:11;;;;;;;2.40;0.77;;;;;;;17.01;77.25;100027.38;4950575;29;20079;-71
2023/09/22 10:29:41;;;;;;;2.17;0.75;;;;;;;16.83;76.33;100026.69;4950481;29;20057;-71
2023/09/22 10:32:18;;;;;;;1.88;0.60;;;;;;;16.72;76.79;100019.66;4950203;28;20267;-73
2023/09/22 10:34:53;;;;;;;1.75;0.63;;;;;;;16.53;75.24;100029.06;4980907;28;20043;-72
2023/09/22 10:37:20;;;;;;;1.50;0.80;;;;;;;16.33;74.94;100030.41;4965214;28;20046;-72
2023/09/22 10:39:58;;;;;;;2.35;0.93;;;;;;;16.22;76.24;100023.31;4949121;28;20023;-72
2023/09/22 10:42:26;;;;;;;3.90;0.80;;;;;;;16.18;78.51;100029.31;4950365;29;20491;-73
2023/09/22 10:45:03;;;;;;;2.50;0.75;;;;;;;16.13;77.11;100023.47;4950034;28;20054;-72
2023/09/22 10:47:49;;;;;;;1.58;1.00;;;;;;;16.05;77.61;100027.94;4950532;28;20035;-72
2023/09/22 10:50:15;;;;;;;2.05;0.90;;;;;;;16.06;77.35;100031.53;4950088;28;20043;-72
2023/09/22 10:52:49;;;;;;;2.38;0.90;;;;;;;16.26;79.22;100023.84;4949826;29;20035;-71
2023/09/22 10:55:24;;;;;;;3.45;0.90;;;;;;;16.66;80.02;100014.81;4949201;29;20108;-72
2023/09/22 10:57:50;;;;;;;2.60;0.73;;;;;;;17.07;75.48;100020.34;4950097;28;20494;-72
2023/09/22 11:00:18;;;;;;;2.28;0.80;;;;;;;17.44;73.05;100019.75;4949747;29;20471;-72
2023/09/22 11:02:44;;;;;;;2.85;0.80;;;;;;;17.52;75.30;100016.97;4948541;28;20063;-72
2023/09/22 11:05:11;;;;;;;1.60;0.60;;;;;;;17.63;71.06;100029.50;4949672;28;20494;-71
2023/09/22 11:07:37;;;;;;;1.65;0.60;;;;;;;17.85;72.18;100028.75;4949326;28;20050;-72
2023/09/22 11:10:02;;;;;;;2.80;0.90;;;;;;;18.07;69.08;100023.50;4962005;28;20539;-72
2023/09/22 11:12:28;;;;;;;3.80;0.90;;;;;;;18.20;71.97;100023.78;5000924;28;20143;-72
2023/09/22 11:14:57;;;;;;;3.88;1.20;;;;;;;18.03;67.71;100020.25;4959327;28;20177;-72
2023/09/22 11:17:41;;;;;;;2.58;0.93;;;;;;;18.10;70.37;100023.16;4949643;28;20073;-73
2023/09/22 11:20:14;;;;;;;2.22;0.70;;;;;;;18.32;70.81;100026.97;4949579;28;20515;-73